createdAt,value
2019-02-17T00:02:12.017Z,1.99
2019-02-17T00:04:41.198Z,1.94
2019-02-17T00:07:10.485Z,1.95
2019-02-17T00:09:39.724Z,2.04
2019-02-17T00:12:08.882Z,2.04
2019-02-17T00:14:38.410Z,2.03
2019-02-17T00:17:07.614Z,2.02
2019-02-17T00:19:36.853Z,1.93
2019-02-17T00:22:06.029Z,1.95
2019-02-17T00:24:35.279Z,1.86
2019-02-17T00:27:04.817Z,1.97
2019-02-17T00:29:34.072Z,1.98
2019-02-17T00:32:03.308Z,1.94
2019-02-17T00:34:32.493Z,1.92
2019-02-17T00:37:02.619Z,1.92
2019-02-17T00:39:31.780Z,1.84
2019-02-17T00:42:02.858Z,1.93
2019-02-17T00:44:32.355Z,1.86
2019-02-17T00:47:04.478Z,1.90
2019-02-17T00:49:33.659Z,1.86
2019-02-17T00:52:03.012Z,1.82
2019-02-17T00:54:32.244Z,1.94
2019-02-17T00:57:01.419Z,1.93
2019-02-17T00:59:30.784Z,1.88
2019-02-17T01:01:59.972Z,1.83
2019-02-17T01:04:29.123Z,1.91
2019-02-17T01:06:58.288Z,1.88
2019-02-17T01:09:27.494Z,1.92
2019-02-17T01:11:56.791Z,1.94
2019-02-17T01:14:25.981Z,1.96
2019-02-17T01:16:55.127Z,1.81
2019-02-17T01:19:24.340Z,1.84
2019-02-17T01:21:53.533Z,1.85
2019-02-17T01:24:22.746Z,1.88
2019-02-17T01:26:52.026Z,1.84
2019-02-17T01:29:21.278Z,1.98
2019-02-17T01:31:50.492Z,1.89
2019-02-17T01:34:19.795Z,1.85
2019-02-17T01:36:49.148Z,1.90
2019-02-17T01:39:18.369Z,1.86
2019-02-17T01:41:47.703Z,1.82
2019-02-17T01:44:16.964Z,1.95
2019-02-17T01:46:46.384Z,1.84
2019-02-17T01:49:15.540Z,1.78
2019-02-17T01:51:44.779Z,1.77
2019-02-17T01:54:14.008Z,1.81
2019-02-17T01:56:43.219Z,1.73
2019-02-17T01:59:12.380Z,1.71
2019-02-17T02:01:41.536Z,1.63
2019-02-17T02:04:10.746Z,1.56
2019-02-17T02:06:39.914Z,1.51
2019-02-17T02:09:10.690Z,1.50
2019-02-17T02:11:39.856Z,1.41
2019-02-17T02:14:09.048Z,1.43
2019-02-17T02:16:38.219Z,1.43
2019-02-17T02:19:07.418Z,1.47
2019-02-17T02:21:36.566Z,1.43
2019-02-17T02:24:05.961Z,1.36
2019-02-17T02:26:35.207Z,1.30
2019-02-17T02:29:04.396Z,1.35
2019-02-17T02:31:33.664Z,1.32
2019-02-17T02:34:02.872Z,1.24
2019-02-17T02:36:32.129Z,1.18
2019-02-17T02:39:04.444Z,1.21
2019-02-17T02:41:34.999Z,1.18
2019-02-17T02:44:04.592Z,1.30
2019-02-17T02:46:34.380Z,1.30
2019-02-17T02:49:03.646Z,1.19
2019-02-17T02:51:32.949Z,1.16
2019-02-17T02:54:02.387Z,1.15
2019-02-17T02:56:31.537Z,1.27
2019-02-17T02:59:02.425Z,1.38
2019-02-17T03:01:31.719Z,1.28
2019-02-17T03:04:02.521Z,1.14
2019-02-17T03:06:59.730Z,1.13
2019-02-17T03:09:28.883Z,1.17
2019-02-17T03:11:58.079Z,1.21
2019-02-17T03:14:27.237Z,1.11
2019-02-17T03:16:56.488Z,1.03
2019-02-17T03:19:25.623Z,1.03
2019-02-17T03:21:54.801Z,0.93
2019-02-17T03:24:24.063Z,1.07
2019-02-17T03:26:53.280Z,0.91
2019-02-17T03:29:22.537Z,0.97
2019-02-17T03:31:51.753Z,0.96
2019-02-17T03:34:21.153Z,0.88
2019-02-17T03:36:50.339Z,0.88
2019-02-17T03:39:19.532Z,0.79
2019-02-17T03:41:48.743Z,0.75
2019-02-17T03:44:17.952Z,0.68
2019-02-17T03:46:47.497Z,0.60
2019-02-17T03:49:16.696Z,0.71
2019-02-17T03:51:45.992Z,0.84
2019-02-17T03:54:15.260Z,0.71
2019-02-17T03:56:44.536Z,0.66
2019-02-17T03:59:13.846Z,0.66
2019-02-17T04:01:43.237Z,0.52
2019-02-17T04:04:12.398Z,0.49
2019-02-17T04:06:41.946Z,0.49
2019-02-17T04:09:11.100Z,0.44
2019-02-17T04:11:40.345Z,0.49
2019-02-17T04:14:09.575Z,0.49
2019-02-17T04:16:38.740Z,0.46
2019-02-17T04:19:07.941Z,0.35
2019-02-17T04:21:37.231Z,0.31
2019-02-17T04:24:06.381Z,0.32
2019-02-17T04:26:35.521Z,0.24
2019-02-17T04:29:06.748Z,0.23
2019-02-17T04:31:35.913Z,0.26
2019-02-17T04:34:05.277Z,0.22
2019-02-17T04:36:34.473Z,0.15
2019-02-17T04:39:04.731Z,0.13
2019-02-17T04:41:33.957Z,0.18
2019-02-17T04:44:03.160Z,0.16
2019-02-17T04:46:32.719Z,0.21
2019-02-17T04:49:01.904Z,0.25
2019-02-17T04:51:31.099Z,0.14
2019-02-17T04:54:00.302Z,0.09
2019-02-17T04:56:29.476Z,0.06
2019-02-17T04:58:58.618Z,0.07
2019-02-17T05:01:27.768Z,-0.06
2019-02-17T05:03:56.950Z,-0.03
2019-02-17T05:06:26.118Z,0.17
2019-02-17T05:08:55.279Z,0.10
2019-02-17T05:11:24.791Z,-0.04
2019-02-17T05:13:53.944Z,-0.09
2019-02-17T05:16:23.101Z,-0.15
2019-02-17T05:18:52.388Z,-0.15
2019-02-17T05:21:21.595Z,0.00
2019-02-17T05:23:50.811Z,0.06
2019-02-17T05:26:20.009Z,0.03
2019-02-17T05:28:49.201Z,-0.15
2019-02-17T05:31:18.429Z,-0.17
2019-02-17T05:33:47.612Z,-0.25
2019-02-17T05:36:16.791Z,-0.21
2019-02-17T05:38:45.972Z,-0.23
2019-02-17T05:41:15.248Z,-0.20
2019-02-17T05:43:44.476Z,-0.19
2019-02-17T05:46:13.667Z,-0.29
2019-02-17T05:48:42.818Z,-0.36
2019-02-17T05:51:12.006Z,-0.30
2019-02-17T05:53:41.201Z,-0.32
2019-02-17T05:56:10.346Z,-0.07
2019-02-17T05:58:39.496Z,0.15
2019-02-17T06:01:08.698Z,0.36
2019-02-17T06:03:37.945Z,0.72
2019-02-17T06:06:07.244Z,1.17
2019-02-17T06:08:36.392Z,1.46
2019-02-17T06:11:05.574Z,1.59
2019-02-17T06:13:34.734Z,1.20
2019-02-17T06:16:03.886Z,0.80
2019-02-17T06:18:33.196Z,0.68
2019-02-17T06:21:02.809Z,0.49
2019-02-17T06:23:31.978Z,0.36
2019-02-17T06:26:03.751Z,0.41
2019-02-17T06:28:33.040Z,0.59
2019-02-17T06:31:02.368Z,1.12
2019-02-17T06:33:31.704Z,1.24
2019-02-17T06:36:02.198Z,1.16
2019-02-17T06:38:31.455Z,0.93
2019-02-17T06:41:00.808Z,0.66
2019-02-17T06:43:30.020Z,0.50
2019-02-17T06:45:59.484Z,0.36
2019-02-17T06:48:28.803Z,0.36
2019-02-17T06:50:57.959Z,0.34
2019-02-17T06:53:27.227Z,0.37
2019-02-17T06:56:04.035Z,0.43
2019-02-17T06:58:33.257Z,0.41
2019-02-17T07:01:03.231Z,0.41
2019-02-17T07:03:32.535Z,0.31
2019-02-17T07:06:29.549Z,0.30
2019-02-17T07:08:58.831Z,0.22
2019-02-17T07:11:27.985Z,0.11
2019-02-17T07:13:57.139Z,0.09
2019-02-17T07:16:26.615Z,0.28
2019-02-17T07:18:55.863Z,0.19
2019-02-17T07:21:25.017Z,0.22
2019-02-17T07:23:54.525Z,0.23
2019-02-17T07:26:23.830Z,0.19
2019-02-17T07:28:52.994Z,0.21
2019-02-17T07:31:22.684Z,0.20
2019-02-17T07:33:51.986Z,0.31
2019-02-17T07:36:22.099Z,0.37
2019-02-17T07:38:51.425Z,0.50
2019-02-17T07:41:20.892Z,0.82
2019-02-17T07:43:50.089Z,0.97
2019-02-17T07:46:19.311Z,1.06
2019-02-17T07:48:48.607Z,1.22
2019-02-17T07:51:17.777Z,1.40
2019-02-17T07:53:46.940Z,1.80
2019-02-17T07:56:16.127Z,2.02
2019-02-17T07:58:45.300Z,2.15
2019-02-17T08:01:14.456Z,2.23
2019-02-17T08:03:43.638Z,2.32
2019-02-17T08:06:12.801Z,2.47
2019-02-17T08:08:42.220Z,2.53
2019-02-17T08:11:11.479Z,2.63
2019-02-17T08:13:40.755Z,2.62
2019-02-17T08:16:10.089Z,2.66
2019-02-17T08:18:39.376Z,2.71
2019-02-17T08:21:08.548Z,2.80
2019-02-17T08:23:37.734Z,3.03
2019-02-17T08:26:06.920Z,3.09
2019-02-17T08:28:36.288Z,3.07
2019-02-17T08:31:05.562Z,3.17
2019-02-17T08:33:34.753Z,3.28
2019-02-17T08:36:03.910Z,3.36
2019-02-17T08:38:33.619Z,3.41
2019-02-17T08:41:02.819Z,3.58
2019-02-17T08:43:32.031Z,3.69
2019-02-17T08:46:02.633Z,3.80
2019-02-17T08:48:32.807Z,3.90
2019-02-17T08:51:02.045Z,4.01
2019-02-17T08:53:31.214Z,4.13
2019-02-17T08:56:00.412Z,4.34
2019-02-17T08:58:29.596Z,4.33
2019-02-17T09:00:58.795Z,4.48
2019-02-17T09:03:28.139Z,4.53
2019-02-17T09:05:57.312Z,4.62
2019-02-17T09:08:26.486Z,4.71
2019-02-17T09:10:55.936Z,4.75
2019-02-17T09:13:25.152Z,4.96
2019-02-17T09:15:54.307Z,4.98
2019-02-17T09:18:23.518Z,5.10
2019-02-17T09:20:52.769Z,5.28
2019-02-17T09:23:22.410Z,5.40
2019-02-17T09:25:51.694Z,5.55
2019-02-17T09:28:20.883Z,5.58
2019-02-17T09:30:50.085Z,5.70
2019-02-17T09:33:19.752Z,5.88
2019-02-17T09:35:49.406Z,6.04
2019-02-17T09:38:18.543Z,6.15
2019-02-17T09:40:48.116Z,6.25
2019-02-17T09:43:17.384Z,6.32
2019-02-17T09:45:46.579Z,6.40
2019-02-17T09:48:15.978Z,6.56
2019-02-17T09:50:45.137Z,6.71
2019-02-17T09:53:14.302Z,6.81
2019-02-17T09:55:43.620Z,6.89
2019-02-17T09:58:13.291Z,7.03
2019-02-17T10:00:42.511Z,7.14
2019-02-17T10:03:11.826Z,7.28
2019-02-17T10:05:41.123Z,7.38
2019-02-17T10:08:10.498Z,7.61
2019-02-17T10:10:39.707Z,7.71
2019-02-17T10:13:08.967Z,7.81
2019-02-17T10:15:38.133Z,7.92
2019-02-17T10:18:07.458Z,8.00
2019-02-17T10:20:36.708Z,8.14
2019-02-17T10:23:06.023Z,8.36
2019-02-17T10:25:35.329Z,8.48
2019-02-17T10:28:05.178Z,8.65
2019-02-17T10:30:34.625Z,8.91
2019-02-17T10:33:03.783Z,9.00
2019-02-17T10:35:32.932Z,9.12
2019-02-17T10:38:02.554Z,9.06
2019-02-17T10:40:31.690Z,9.23
2019-02-17T10:43:03.691Z,9.35
2019-02-17T10:45:32.895Z,9.46
2019-02-17T10:48:02.143Z,9.64
2019-02-17T10:50:31.362Z,9.75
2019-02-17T10:53:00.687Z,9.78
2019-02-17T10:55:29.857Z,9.82
2019-02-17T10:57:59.103Z,9.83
2019-02-17T11:00:30.151Z,9.94
2019-02-17T11:03:06.020Z,10.10
2019-02-17T11:05:35.215Z,10.28
2019-02-17T11:08:04.504Z,10.36
2019-02-17T11:10:33.685Z,10.49
2019-02-17T11:13:02.910Z,10.67
2019-02-17T11:15:32.265Z,10.70
2019-02-17T11:18:02.943Z,10.86
2019-02-17T11:20:32.080Z,10.97
2019-02-17T11:23:01.370Z,11.07
2019-02-17T11:25:30.630Z,11.05
2019-02-17T11:27:59.808Z,11.07
2019-02-17T11:30:29.253Z,11.17
2019-02-17T11:32:58.452Z,11.31
2019-02-17T11:35:29.788Z,11.36
2019-02-17T11:37:58.561Z,11.56
2019-02-17T11:40:27.814Z,11.89
2019-02-17T11:42:56.989Z,11.79
2019-02-17T11:45:26.226Z,12.06
2019-02-17T11:47:55.516Z,11.93
2019-02-17T11:50:24.897Z,12.20
2019-02-17T11:52:54.172Z,12.30
2019-02-17T11:55:23.440Z,12.25
2019-02-17T11:57:52.744Z,12.30
2019-02-17T12:00:24.154Z,12.36
2019-02-17T12:02:53.313Z,12.50
2019-02-17T12:05:22.481Z,12.82
2019-02-17T12:07:51.687Z,12.82
2019-02-17T12:10:22.121Z,12.86
2019-02-17T12:12:51.301Z,12.96
2019-02-17T12:15:20.591Z,13.10
2019-02-17T12:17:49.801Z,13.17
2019-02-17T12:20:50.338Z,13.29
2019-02-17T12:23:32.965Z,13.49
2019-02-17T12:26:21.080Z,13.68
2019-02-17T12:29:00.763Z,13.68
2019-02-17T12:31:34.131Z,13.58
2019-02-17T12:34:03.352Z,13.63
2019-02-17T12:36:32.662Z,14.21
2019-02-17T12:39:02.615Z,14.28
2019-02-17T12:41:31.791Z,15.19
2019-02-17T12:44:02.240Z,15.03
2019-02-17T12:46:31.659Z,14.75
2019-02-17T12:49:02.673Z,15.21
2019-02-17T12:51:31.685Z,14.59
2019-02-17T12:54:01.792Z,15.96
2019-02-17T12:56:31.008Z,16.97
2019-02-17T12:59:00.229Z,16.74
2019-02-17T13:01:29.407Z,16.68
2019-02-17T13:03:58.624Z,16.33
2019-02-17T13:06:27.844Z,17.64
2019-02-17T13:08:57.082Z,17.78
2019-02-17T13:11:26.283Z,15.85
2019-02-17T13:13:55.473Z,15.46
2019-02-17T13:16:24.901Z,14.91
2019-02-17T13:18:54.122Z,14.92
2019-02-17T13:21:23.356Z,14.74
2019-02-17T13:23:52.777Z,15.26
2019-02-17T13:26:21.985Z,15.71
2019-02-17T13:28:51.191Z,16.01
2019-02-17T13:31:20.372Z,15.47
2019-02-17T13:33:49.570Z,16.22
2019-02-17T13:36:18.792Z,17.43
2019-02-17T13:38:48.278Z,17.25
2019-02-17T13:41:17.487Z,15.94
2019-02-17T13:43:46.674Z,16.76
2019-02-17T13:46:15.887Z,16.16
2019-02-17T13:48:45.070Z,15.59
2019-02-17T13:51:14.274Z,15.70
2019-02-17T13:53:43.461Z,15.39
2019-02-17T13:56:12.840Z,16.02
2019-02-17T13:58:42.152Z,15.50
2019-02-17T14:01:11.343Z,15.27
2019-02-17T14:03:48.448Z,15.63
2019-02-17T14:06:11.653Z,15.40
2019-02-17T14:08:40.944Z,15.98
2019-02-17T14:11:10.144Z,16.16
2019-02-17T14:13:39.547Z,16.44
2019-02-17T14:16:08.736Z,15.84
2019-02-17T14:18:37.941Z,15.84
2019-02-17T14:21:07.139Z,15.60
2019-02-17T14:23:36.303Z,15.74
2019-02-17T14:26:05.469Z,15.65
2019-02-17T14:28:34.802Z,15.89
2019-02-17T14:31:04.033Z,16.02
2019-02-17T14:33:33.355Z,15.96
2019-02-17T14:36:02.601Z,15.73
2019-02-17T14:38:31.856Z,15.81
2019-02-17T14:41:02.177Z,16.25
2019-02-17T14:43:31.496Z,15.99
2019-02-17T14:46:00.732Z,16.38
2019-02-17T14:48:30.013Z,15.69
2019-02-17T14:50:59.177Z,15.85
2019-02-17T14:53:28.437Z,16.24
2019-02-17T14:55:57.635Z,15.83
2019-02-17T14:58:27.071Z,15.87
2019-02-17T15:00:56.474Z,16.29
2019-02-17T15:03:25.969Z,16.02
2019-02-17T15:05:55.168Z,15.70
2019-02-17T15:08:26.886Z,15.65
2019-02-17T15:10:56.065Z,15.76
2019-02-17T15:13:25.278Z,15.31
2019-02-17T15:15:54.565Z,15.60
2019-02-17T15:18:23.813Z,15.40
2019-02-17T15:20:52.999Z,15.33
2019-02-17T15:23:22.312Z,15.17
2019-02-17T15:25:51.850Z,14.99
2019-02-17T15:28:21.090Z,14.89
2019-02-17T15:30:50.282Z,14.82
2019-02-17T15:33:19.483Z,15.05
2019-02-17T15:35:48.772Z,14.70
2019-02-17T15:38:17.998Z,14.56
2019-02-17T15:40:47.330Z,14.50
2019-02-17T15:43:16.970Z,14.44
2019-02-17T15:45:46.431Z,14.51
2019-02-17T15:48:15.989Z,14.32
2019-02-17T15:50:45.159Z,14.22
2019-02-17T15:53:14.352Z,14.07
2019-02-17T15:55:43.588Z,13.91
2019-02-17T15:58:12.815Z,13.78
2019-02-17T16:00:42.446Z,13.76
2019-02-17T16:03:11.824Z,13.61
2019-02-17T16:05:41.260Z,13.47
2019-02-17T16:08:10.731Z,13.42
2019-02-17T16:10:39.908Z,13.32
2019-02-17T16:13:09.079Z,13.30
2019-02-17T16:15:38.429Z,13.21
2019-02-17T16:18:07.831Z,13.12
2019-02-17T16:20:37.122Z,13.03
2019-02-17T16:23:06.535Z,12.81
2019-02-17T16:25:35.811Z,12.64
2019-02-17T16:28:05.105Z,12.45
2019-02-17T16:30:34.336Z,12.33
2019-02-17T16:33:03.562Z,12.24
2019-02-17T16:35:32.787Z,12.00
2019-02-17T16:38:01.993Z,11.81
2019-02-17T16:40:31.205Z,11.64
2019-02-17T16:43:00.561Z,11.42
2019-02-17T16:45:29.805Z,11.17
2019-02-17T16:47:59.196Z,11.04
2019-02-17T16:50:28.508Z,11.01
2019-02-17T16:52:57.732Z,10.65
2019-02-17T16:55:27.086Z,10.55
2019-02-17T16:57:56.322Z,10.53
2019-02-17T17:00:25.729Z,10.42
2019-02-17T17:02:54.973Z,10.50
2019-02-17T17:05:24.371Z,10.54
2019-02-17T17:07:53.626Z,10.37
2019-02-17T17:10:22.861Z,10.08
2019-02-17T17:12:52.217Z,9.90
2019-02-17T17:15:21.593Z,10.04
2019-02-17T17:17:51.057Z,10.17
2019-02-17T17:20:20.428Z,9.99
2019-02-17T17:22:49.699Z,10.24
2019-02-17T17:25:19.249Z,10.24
2019-02-17T17:27:48.558Z,10.05
2019-02-17T17:30:18.277Z,10.00
2019-02-17T17:32:47.526Z,10.08
2019-02-17T17:35:16.899Z,9.79
2019-02-17T17:37:46.370Z,9.59
2019-02-17T17:40:15.642Z,9.70
2019-02-17T17:42:45.024Z,9.63
2019-02-17T17:45:14.497Z,9.61
2019-02-17T17:47:44.019Z,9.44
2019-02-17T17:50:13.886Z,9.29
2019-02-17T17:52:44.212Z,9.04
2019-02-17T17:55:14.076Z,8.96
2019-02-17T17:57:43.233Z,8.80
2019-02-17T18:00:14.507Z,8.62
2019-02-17T18:02:43.720Z,8.53
2019-02-17T18:05:13.343Z,8.25
2019-02-17T18:07:42.611Z,8.17
2019-02-17T18:10:14.047Z,8.00
2019-02-17T18:12:43.485Z,7.81
2019-02-17T18:15:13.429Z,7.75
2019-02-17T18:17:42.788Z,7.75
2019-02-17T18:20:12.494Z,7.58
2019-02-17T18:22:41.831Z,7.43
2019-02-17T18:25:12.967Z,7.39
2019-02-17T18:27:42.271Z,7.27
2019-02-17T18:30:12.752Z,7.19
2019-02-17T18:32:43.311Z,7.18
2019-02-17T18:35:19.584Z,7.11
2019-02-17T18:37:43.809Z,7.01
2019-02-17T18:40:13.732Z,6.90
2019-02-17T18:42:44.974Z,6.76
2019-02-17T18:45:14.412Z,6.67
2019-02-17T18:47:43.845Z,6.69
2019-02-17T18:50:13.710Z,6.55
2019-02-17T18:52:44.677Z,6.40
2019-02-17T18:55:15.562Z,6.29
2019-02-17T18:57:49.991Z,6.20
2019-02-17T19:00:17.618Z,6.19
2019-02-17T19:02:47.256Z,6.07
2019-02-17T19:05:16.507Z,6.05
2019-02-17T19:07:45.755Z,6.24
2019-02-17T19:10:16.542Z,6.24
2019-02-17T19:12:46.313Z,5.96
2019-02-17T19:15:15.564Z,5.77
2019-02-17T19:17:44.972Z,5.65
2019-02-17T19:20:20.786Z,5.52
2019-02-17T19:22:50.099Z,5.54
2019-02-17T19:25:20.974Z,5.43
2019-02-17T19:27:50.325Z,5.34
2019-02-17T19:30:20.873Z,5.61
2019-02-17T19:32:50.508Z,5.52
2019-02-17T19:35:19.698Z,5.40
2019-02-17T19:37:49.469Z,5.29
2019-02-17T19:40:18.842Z,5.37
2019-02-17T19:42:48.600Z,5.38
2019-02-17T19:45:17.887Z,5.81
2019-02-17T19:47:47.250Z,5.56
2019-02-17T19:50:16.887Z,5.54
2019-02-17T19:52:46.393Z,5.53
2019-02-17T19:55:15.736Z,5.62
2019-02-17T19:57:46.009Z,5.66
2019-02-17T20:00:15.594Z,5.53
2019-02-17T20:02:52.005Z,5.49
2019-02-17T20:05:23.898Z,5.44
2019-02-17T20:07:53.496Z,5.38
2019-02-17T20:10:23.057Z,5.40
2019-02-17T20:12:54.795Z,5.34
2019-02-17T20:15:25.935Z,5.17
2019-02-17T20:17:55.759Z,5.21
2019-02-17T20:20:27.601Z,5.09
2019-02-17T20:22:57.271Z,5.17
2019-02-17T20:25:27.558Z,5.15
2019-02-17T20:27:57.130Z,5.20
2019-02-17T20:30:26.463Z,5.13
2019-02-17T20:32:57.895Z,5.23
2019-02-17T20:35:27.344Z,5.19
2019-02-17T20:37:56.694Z,4.95
2019-02-17T20:40:26.197Z,5.03
2019-02-17T20:42:55.487Z,5.41
2019-02-17T20:45:25.078Z,5.55
2019-02-17T20:47:54.507Z,5.25
2019-02-17T20:50:23.959Z,5.05
2019-02-17T20:52:53.185Z,4.96
2019-02-17T20:55:22.575Z,4.91
2019-02-17T20:57:51.956Z,4.96
2019-02-17T21:00:24.326Z,4.92
2019-02-17T21:02:55.225Z,5.02
2019-02-17T21:05:24.471Z,5.10
2019-02-17T21:07:54.617Z,5.31
2019-02-17T21:10:23.842Z,5.43
2019-02-17T21:12:53.930Z,5.51
2019-02-17T21:15:24.196Z,5.47
2019-02-17T21:17:53.519Z,5.72
2019-02-17T21:20:23.096Z,5.99
2019-02-17T21:22:53.161Z,6.43
2019-02-17T21:25:22.497Z,6.69
2019-02-17T21:27:51.764Z,6.85
2019-02-17T21:30:21.328Z,7.00
2019-02-17T21:32:50.628Z,7.15
2019-02-17T21:35:19.855Z,7.31
2019-02-17T21:37:49.536Z,7.34
2019-02-17T21:40:19.277Z,7.48
2019-02-17T21:42:48.450Z,7.63
2019-02-17T21:45:17.749Z,7.85
2019-02-17T21:47:46.938Z,7.90
2019-02-17T21:50:16.260Z,8.00
2019-02-17T21:52:45.560Z,8.08
2019-02-17T21:55:15.025Z,8.11
2019-02-17T21:57:44.255Z,8.01
2019-02-17T22:00:14.509Z,7.98
2019-02-17T22:02:43.969Z,7.97
2019-02-17T22:05:13.260Z,7.87
2019-02-17T22:07:42.448Z,7.78
2019-02-17T22:10:13.286Z,7.71
2019-02-17T22:12:42.661Z,7.69
2019-02-17T22:15:13.590Z,7.78
2019-02-17T22:17:43.043Z,7.76
2019-02-17T22:20:31.902Z,7.88
2019-02-17T22:23:02.788Z,7.82
2019-02-17T22:25:31.944Z,7.69
2019-02-17T22:28:01.093Z,7.66
2019-02-17T22:30:30.283Z,7.76
2019-02-17T22:32:59.874Z,7.77
2019-02-17T22:35:29.422Z,7.86
2019-02-17T22:37:58.606Z,7.95
2019-02-17T22:40:28.024Z,8.04
2019-02-17T22:42:57.171Z,8.07
2019-02-17T22:45:26.371Z,8.03
2019-02-17T22:47:55.528Z,8.05
2019-02-17T22:50:24.708Z,7.96
2019-02-17T22:52:53.913Z,7.95
2019-02-17T22:55:23.226Z,7.86
2019-02-17T22:57:52.387Z,7.77
2019-02-17T23:00:37.472Z,7.63
2019-02-17T23:03:06.717Z,7.58
2019-02-17T23:05:36.040Z,7.56
2019-02-17T23:08:05.241Z,7.46
2019-02-17T23:10:34.442Z,7.33
2019-02-17T23:13:03.720Z,7.39
2019-02-17T23:15:32.910Z,7.36
2019-02-17T23:18:02.375Z,7.37
2019-02-17T23:20:31.587Z,7.41
2019-02-17T23:23:00.817Z,7.38
2019-02-17T23:25:29.972Z,7.31
2019-02-17T23:27:59.203Z,7.28
2019-02-17T23:30:28.391Z,7.36
2019-02-17T23:32:57.569Z,7.39
2019-02-17T23:35:27.125Z,7.42
2019-02-17T23:37:56.302Z,7.42
2019-02-17T23:40:25.460Z,7.43
2019-02-17T23:42:54.651Z,7.45
2019-02-17T23:45:23.910Z,7.45
2019-02-17T23:47:53.458Z,7.43
2019-02-17T23:50:23.408Z,7.38
2019-02-17T23:52:54.504Z,7.35
2019-02-17T23:55:23.720Z,7.36
2019-02-17T23:57:52.882Z,7.33
